Bellevue, Nebraska
Current Conditions -  °F | °C
As of 10:58 AM on Saturday 25 Oct 2014 (Local Time) from KOFF Reporting Station
Clear Clear  
Wind Chill: 62°   Ceiling: Unl
Heat Index: 62°   Visibility: 10mi
Dew Point: 55°   Wind: 3mph
Humidity: 77%   Direction: 40°NE
Pressure: 30.11"   Gusts: NA
Location:  41.14°N, 95.89°W
Report Text: KOFF 251558Z AUTO 04003KT 10SM CLR 17/13 A3011 RMK AO2 SLP199 T01670127
Loading
Personal Weather Stations






























Interactive Weather Map
Tropical Storm Tracking
New forecast layout! Learn more

10-Day Weather Forecast

Advertisements
Track Severe Weather on mobile